Time;durP1;ratioP1;P1;durP2;ratioP2;P2;SDS_P1;SDS_P2;PMS_P1;PMS_P2;Temp;Humidity;BMP_temperature;BMP_pressure;BME280_temperature;BME280_humidity;BME280_pressure;Samples;Min_cycle;Max_cycle;Signal;HPM_P1;HPM_P2
2023/06/01 00:01:12;;;;;;;21.83;7.95;;;13.50;99.90;;;;;;5040624;28;20213;-80
2023/06/01 00:03:39;;;;;;;9.00;6.43;;;13.40;99.90;;;;;;5041208;28;20333;-79
2023/06/01 00:06:07;;;;;;;12.63;6.72;;;13.40;99.90;;;;;;5044062;28;20203;-82
2023/06/01 00:08:36;;;;;;;7.30;6.15;;;13.30;99.90;;;;;;5036249;28;20669;-80
2023/06/01 00:11:03;;;;;;;10.15;6.68;;;13.30;99.90;;;;;;5051193;28;20204;-79
2023/06/01 00:13:30;;;;;;;11.52;6.45;;;13.30;99.90;;;;;;5037876;28;20230;-81
2023/06/01 00:15:57;;;;;;;12.68;7.47;;;13.30;99.90;;;;;;5034605;28;20223;-81
2023/06/01 00:18:26;;;;;;;15.95;7.80;;;13.40;99.90;;;;;;5036809;28;20222;-81
2023/06/01 00:20:52;;;;;;;12.85;7.70;;;13.40;99.90;;;;;;5044861;28;20281;-79
2023/06/01 00:23:21;;;;;;;22.55;8.77;;;13.30;99.90;;;;;;5039613;28;20319;-79
2023/06/01 00:25:50;;;;;;;15.02;8.57;;;13.40;99.90;;;;;;5036166;28;20564;-82
2023/06/01 00:28:16;;;;;;;17.83;8.02;;;13.30;99.90;;;;;;5036725;28;20326;-79
2023/06/01 00:30:44;;;;;;;13.50;8.00;;;13.30;99.90;;;;;;5035842;28;20278;-79
2023/06/01 00:33:10;;;;;;;16.45;8.05;;;13.30;99.90;;;;;;5037777;28;20256;-79
2023/06/01 00:35:37;;;;;;;12.40;7.30;;;13.30;99.90;;;;;;5033899;28;20228;-79
2023/06/01 00:38:06;;;;;;;20.33;7.18;;;13.30;99.90;;;;;;5036852;28;20224;-79
2023/06/01 00:40:34;;;;;;;19.85;8.18;;;13.30;99.90;;;;;;5027719;28;20232;-79
2023/06/01 00:43:03;;;;;;;15.13;7.18;;;13.30;99.90;;;;;;5026750;28;20690;-81
2023/06/01 00:45:30;;;;;;;14.65;6.93;;;13.30;99.90;;;;;;5033869;28;20200;-80
2023/06/01 00:47:59;;;;;;;7.63;6.22;;;13.30;99.90;;;;;;5030156;28;20274;-81
2023/06/01 00:50:26;;;;;;;10.18;7.70;;;13.30;99.90;;;;;;5022876;28;20200;-80
2023/06/01 00:52:53;;;;;;;12.52;7.35;;;13.40;99.90;;;;;;5037978;28;20231;-80
2023/06/01 00:55:21;;;;;;;14.38;6.65;;;13.30;99.90;;;;;;5033779;28;20201;-78
2023/06/01 00:57:50;;;;;;;13.00;6.80;;;13.30;99.90;;;;;;5034945;28;20282;-79
2023/06/01 01:00:19;;;;;;;11.80;7.07;;;13.30;99.90;;;;;;5041602;28;20313;-80
2023/06/01 01:02:48;;;;;;;22.60;7.85;;;13.40;99.90;;;;;;5042184;28;20227;-78
2023/06/01 01:05:17;;;;;;;12.75;6.13;;;13.30;99.90;;;;;;5038570;28;20218;-80
2023/06/01 01:07:55;;;;;;;12.00;8.43;;;13.30;99.90;;;;;;5034981;28;20227;-79
2023/06/01 01:10:32;;;;;;;16.42;8.90;;;13.30;99.90;;;;;;5031811;28;20270;-81
2023/06/01 01:13:05;;;;;;;13.75;8.07;;;13.30;99.90;;;;;;5034281;28;20239;-81
2023/06/01 01:15:42;;;;;;;21.88;8.13;;;13.20;99.90;;;;;;5032905;28;20639;-83
2023/06/01 01:18:17;;;;;;;13.30;9.00;;;13.20;99.90;;;;;;5031418;28;20255;-81
2023/06/01 01:20:49;;;;;;;17.85;8.32;;;13.20;99.90;;;;;;5025049;28;20290;-81
2023/06/01 01:23:41;;;;;;;27.33;8.85;;;13.20;99.90;;;;;;5034801;28;20234;-79
2023/06/01 01:26:24;;;;;;;15.88;8.93;;;13.20;99.90;;;;;;5011676;28;20554;-79
2023/06/01 01:28:55;;;;;;;14.52;8.75;;;13.10;99.90;;;;;;5018156;28;20278;-80
2023/06/01 01:31:24;;;;;;;14.63;9.18;;;13.10;99.90;;;;;;5038454;28;20200;-78
2023/06/01 01:33:53;;;;;;;21.33;10.38;;;13.10;99.90;;;;;;5035409;28;20309;-79
2023/06/01 01:36:21;;;;;;;14.15;9.88;;;13.00;99.90;;;;;;5039790;28;20196;-81
2023/06/01 01:38:48;;;;;;;16.65;8.32;;;13.10;99.90;;;;;;5040765;28;20204;-80
2023/06/01 01:41:15;;;;;;;12.88;6.38;;;13.10;99.90;;;;;;5048260;28;20203;-79
2023/06/01 01:43:43;;;;;;;16.35;7.75;;;13.10;99.90;;;;;;5054547;28;20736;-80
2023/06/01 01:46:22;;;;;;;12.55;7.38;;;13.20;99.90;;;;;;5047678;28;20199;-78
2023/06/01 01:48:56;;;;;;;13.85;8.10;;;13.20;99.90;;;;;;5025679;28;20255;-78
2023/06/01 01:51:28;;;;;;;13.15;6.97;;;13.20;99.90;;;;;;5038500;28;20225;-80
2023/06/01 01:53:57;;;;;;;15.77;9.30;;;13.10;99.90;;;;;;5053827;28;20248;-78
2023/06/01 01:56:37;;;;;;;14.52;6.50;;;13.10;99.90;;;;;;5053455;28;20210;-79
2023/06/01 01:59:05;;;;;;;12.55;7.10;;;13.20;99.90;;;;;;5051901;28;20193;-81
2023/06/01 02:01:34;;;;;;;12.02;6.43;;;13.20;99.90;;;;;;5035580;28;20215;-81
2023/06/01 02:04:02;;;;;;;10.73;5.72;;;13.00;99.90;;;;;;5035150;28;20213;-82
2023/06/01 02:06:30;;;;;;;7.82;4.88;;;13.10;99.90;;;;;;5042160;28;20199;-81
2023/06/01 02:08:57;;;;;;;8.95;6.50;;;13.00;99.90;;;;;;5047144;28;20210;-83
2023/06/01 02:11:24;;;;;;;12.45;6.57;;;13.00;99.90;;;;;;5035470;28;20614;-81
2023/06/01 02:13:51;;;;;;;22.65;7.50;;;13.10;99.90;;;;;;5036587;28;20254;-79
2023/06/01 02:16:18;;;;;;;15.85;6.97;;;13.20;99.90;;;;;;5040593;28;20196;-79
2023/06/01 02:18:47;;;;;;;11.13;5.65;;;13.20;99.90;;;;;;5038616;28;20264;-78
2023/06/01 02:21:14;;;;;;;13.30;6.22;;;13.10;99.90;;;;;;5040466;28;20315;-79
2023/06/01 02:23:42;;;;;;;11.88;5.78;;;13.10;99.90;;;;;;5032476;28;20286;-81
2023/06/01 02:26:10;;;;;;;13.32;5.90;;;13.10;99.90;;;;;;5040409;28;20653;-80
2023/06/01 02:28:38;;;;;;;11.63;5.15;;;13.10;99.90;;;;;;5043705;28;20274;-80
2023/06/01 02:31:05;;;;;;;8.32;4.43;;;13.20;99.90;;;;;;5036311;28;20287;-81
2023/06/01 02:33:32;;;;;;;10.40;5.47;;;13.20;99.90;;;;;;5035413;28;20252;-81
2023/06/01 02:36:00;;;;;;;8.45;4.95;;;13.20;99.90;;;;;;5041636;28;20203;-80
2023/06/01 02:38:28;;;;;;;11.35;5.10;;;13.20;99.90;;;;;;5036133;28;20208;-79
2023/06/01 02:40:55;;;;;;;8.60;4.68;;;13.20;99.90;;;;;;5035404;28;20251;-79
2023/06/01 02:43:22;;;;;;;7.18;4.80;;;13.20;99.90;;;;;;5044461;28;20257;-79
2023/06/01 02:45:49;;;;;;;8.32;4.93;;;13.20;99.90;;;;;;5035064;28;20298;-79
2023/06/01 02:48:16;;;;;;;15.32;6.38;;;13.30;99.90;;;;;;5034876;28;20245;-80
2023/06/01 02:50:43;;;;;;;11.63;6.03;;;13.30;99.90;;;;;;5034775;28;20206;-79
2023/06/01 02:53:11;;;;;;;9.27;4.90;;;13.30;99.90;;;;;;5043330;28;20703;-79
2023/06/01 02:55:38;;;;;;;14.18;4.85;;;13.30;99.90;;;;;;5034868;28;20196;-78
2023/06/01 02:58:08;;;;;;;11.77;5.75;;;13.30;99.90;;;;;;5035467;28;20287;-79
2023/06/01 03:00:35;;;;;;;10.90;5.03;;;13.40;99.90;;;;;;5035226;28;20246;-80
2023/06/01 03:03:03;;;;;;;8.98;5.13;;;13.40;99.90;;;;;;5044345;28;20262;-78
2023/06/01 03:05:32;;;;;;;9.75;4.35;;;13.40;99.90;;;;;;5036018;28;20211;-81
2023/06/01 03:07:59;;;;;;;15.32;6.70;;;13.40;99.90;;;;;;5037377;28;20242;-80
2023/06/01 03:10:29;;;;;;;9.68;4.00;;;13.40;99.90;;;;;;5040277;28;20201;-81
2023/06/01 03:12:56;;;;;;;20.63;6.55;;;13.40;99.90;;;;;;5035025;28;20310;-79
2023/06/01 03:15:23;;;;;;;9.07;4.25;;;13.50;99.90;;;;;;5035073;28;20669;-81
2023/06/01 03:17:51;;;;;;;10.48;4.60;;;13.50;99.90;;;;;;5029400;28;20567;-81
2023/06/01 03:20:18;;;;;;;8.60;4.55;;;13.40;99.90;;;;;;5035112;28;20193;-79
2023/06/01 03:22:46;;;;;;;15.35;5.65;;;13.40;99.90;;;;;;5036871;28;20307;-81
2023/06/01 03:25:14;;;;;;;13.38;5.97;;;13.30;99.90;;;;;;5035436;28;20255;-80
2023/06/01 03:27:42;;;;;;;19.58;6.95;;;13.30;99.90;;;;;;5035725;28;20666;-80
2023/06/01 03:30:11;;;;;;;13.48;6.18;;;13.20;99.90;;;;;;5026748;28;20203;-80
2023/06/01 03:32:38;;;;;;;11.93;7.75;;;13.20;99.90;;;;;;5039697;28;20257;-82
2023/06/01 03:35:07;;;;;;;13.80;7.13;;;13.20;99.90;;;;;;5048579;28;20198;-80
2023/06/01 03:37:34;;;;;;;16.98;6.22;;;13.20;99.90;;;;;;5044134;28;20242;-83
2023/06/01 03:40:01;;;;;;;12.35;5.50;;;13.10;99.90;;;;;;5036274;28;20208;-83
2023/06/01 03:42:28;;;;;;;12.57;6.80;;;13.10;99.90;;;;;;5045471;28;20232;-78
2023/06/01 03:44:56;;;;;;;12.40;5.25;;;13.10;99.90;;;;;;5039290;28;20290;-80
2023/06/01 03:47:23;;;;;;;15.05;4.72;;;13.20;99.90;;;;;;5046188;28;20217;-80
2023/06/01 03:49:50;;;;;;;9.45;6.18;;;13.20;99.90;;;;;;5040853;28;20290;-81
2023/06/01 03:52:18;;;;;;;14.35;5.72;;;13.20;99.90;;;;;;5043896;28;20320;-81
2023/06/01 03:54:45;;;;;;;16.83;5.97;;;13.20;99.90;;;;;;5050091;28;20211;-78
2023/06/01 03:57:12;;;;;;;13.13;5.85;;;13.20;99.90;;;;;;5035097;28;20295;-81
2023/06/01 03:59:38;;;;;;;10.60;5.47;;;13.30;99.90;;;;;;5039467;28;20287;-81
2023/06/01 04:02:09;;;;;;;7.93;4.40;;;13.30;99.90;;;;;;5036740;28;20231;-80
2023/06/01 04:04:36;;;;;;;18.65;6.50;;;13.30;99.90;;;;;;5023954;28;20687;-80
2023/06/01 04:07:04;;;;;;;11.80;4.80;;;13.20;99.90;;;;;;5031746;28;20291;-79
2023/06/01 04:09:31;;;;;;;15.15;6.63;;;13.30;99.90;;;;;;5030543;28;20290;-78
2023/06/01 04:11:58;;;;;;;14.75;5.82;;;13.20;99.90;;;;;;5033218;28;20223;-80
2023/06/01 04:14:25;;;;;;;13.50;6.65;;;13.30;99.90;;;;;;5034655;28;20225;-79
2023/06/01 04:16:51;;;;;;;15.23;8.02;;;13.20;99.90;;;;;;5032595;28;20214;-79
2023/06/01 04:19:20;;;;;;;6.93;5.88;;;13.30;99.90;;;;;;5037315;28;20296;-78
2023/06/01 04:21:47;;;;;;;13.85;7.18;;;13.30;99.90;;;;;;5036060;28;20338;-78
2023/06/01 04:24:14;;;;;;;13.55;5.78;;;13.30;99.90;;;;;;5030164;28;20215;-78
2023/06/01 04:26:44;;;;;;;10.95;5.03;;;13.30;99.90;;;;;;5041741;28;20199;-79
2023/06/01 04:29:11;;;;;;;11.40;6.32;;;13.30;99.90;;;;;;5041573;28;20203;-79
2023/06/01 04:31:39;;;;;;;8.95;5.55;;;13.40;99.90;;;;;;5032075;28;20210;-80
2023/06/01 04:34:06;;;;;;;14.07;5.45;;;13.50;99.90;;;;;;5026125;28;20207;-79
2023/06/01 04:36:38;;;;;;;14.77;6.05;;;13.40;99.90;;;;;;5032790;28;20224;-79
2023/06/01 04:39:06;;;;;;;11.52;5.40;;;13.40;99.90;;;;;;5030447;28;20261;-79
2023/06/01 04:41:34;;;;;;;13.50;6.40;;;13.30;99.90;;;;;;5032877;28;20219;-81
2023/06/01 04:44:05;;;;;;;15.25;5.78;;;13.30;99.90;;;;;;5029337;28;20287;-82
2023/06/01 04:46:33;;;;;;;10.80;5.40;;;13.30;99.90;;;;;;5046769;28;20232;-78
2023/06/01 04:49:00;;;;;;;7.38;4.72;;;13.40;99.90;;;;;;5044915;28;20821;-78
2023/06/01 04:51:28;;;;;;;8.13;5.20;;;13.40;99.90;;;;;;5034864;28;20700;-80
2023/06/01 04:53:57;;;;;;;8.32;5.22;;;13.40;99.90;;;;;;5039493;28;20224;-79
2023/06/01 04:56:26;;;;;;;11.70;5.03;;;13.40;99.90;;;;;;5037604;28;20243;-79
2023/06/01 04:58:54;;;;;;;14.70;7.35;;;13.40;99.90;;;;;;5037368;28;20227;-81
2023/06/01 05:01:24;;;;;;;10.63;5.13;;;13.40;99.90;;;;;;5042048;28;20557;-77
2023/06/01 05:03:54;;;;;;;9.75;5.03;;;13.40;99.90;;;;;;5049858;28;20262;-79
2023/06/01 05:06:22;;;;;;;7.00;5.10;;;13.40;99.90;;;;;;5040199;28;20196;-78
2023/06/01 05:08:51;;;;;;;10.25;4.75;;;13.40;99.90;;;;;;5039012;28;20294;-80
2023/06/01 05:11:19;;;;;;;11.13;4.78;;;13.50;99.90;;;;;;5042081;28;20196;-77
2023/06/01 05:13:46;;;;;;;12.27;7.47;;;13.50;99.90;;;;;;5038919;28;20220;-77
2023/06/01 05:16:14;;;;;;;11.00;5.75;;;13.40;99.90;;;;;;5047608;28;20233;-75
2023/06/01 05:18:41;;;;;;;13.93;5.63;;;13.50;99.90;;;;;;5042695;28;20200;-78
2023/06/01 05:21:08;;;;;;;13.02;5.50;;;13.50;99.90;;;;;;5043490;28;20226;-76
2023/06/01 05:23:36;;;;;;;7.18;4.45;;;13.50;99.90;;;;;;5045761;28;20273;-76
2023/06/01 05:26:02;;;;;;;10.55;5.47;;;13.50;99.90;;;;;;5045449;28;20206;-76
2023/06/01 05:28:32;;;;;;;10.98;4.10;;;13.60;99.90;;;;;;5046175;28;20235;-75
2023/06/01 05:30:59;;;;;;;11.10;5.32;;;13.60;99.90;;;;;;5046097;28;20239;-77
2023/06/01 05:33:26;;;;;;;8.20;4.72;;;13.70;99.90;;;;;;5036330;28;20223;-79
2023/06/01 05:35:53;;;;;;;14.20;5.10;;;13.70;99.90;;;;;;5045531;28;20204;-78
2023/06/01 05:38:20;;;;;;;6.63;4.65;;;13.70;99.90;;;;;;5038109;28;20204;-78
2023/06/01 05:40:47;;;;;;;9.77;6.15;;;13.70;99.90;;;;;;5040559;28;20196;-75
2023/06/01 05:43:15;;;;;;;8.23;5.10;;;13.70;99.90;;;;;;5047802;28;20228;-78
2023/06/01 05:45:43;;;;;;;9.15;5.78;;;13.70;99.90;;;;;;5036555;28;20341;-80
2023/06/01 05:48:13;;;;;;;10.88;4.72;;;13.70;99.90;;;;;;5032698;28;20204;-78
2023/06/01 05:50:41;;;;;;;8.98;5.05;;;13.50;99.90;;;;;;5033490;28;20614;-79
2023/06/01 05:53:08;;;;;;;12.65;5.40;;;13.60;99.90;;;;;;5036020;28;20752;-79
2023/06/01 05:55:35;;;;;;;26.48;5.75;;;13.60;99.90;;;;;;5048979;28;20253;-79
2023/06/01 05:58:02;;;;;;;15.10;5.15;;;13.70;99.90;;;;;;5044340;28;20200;-78
2023/06/01 06:00:29;;;;;;;8.85;4.45;;;13.70;99.90;;;;;;5045740;28;20560;-78
2023/06/01 06:02:58;;;;;;;10.40;4.93;;;13.80;99.90;;;;;;5034929;28;20228;-78
2023/06/01 06:05:25;;;;;;;16.98;6.53;;;13.80;99.90;;;;;;5034730;28;20772;-78
2023/06/01 06:07:52;;;;;;;6.85;4.75;;;13.90;99.90;;;;;;5040052;28;20200;-78
2023/06/01 06:10:19;;;;;;;10.48;4.78;;;13.80;99.90;;;;;;5032403;28;20214;-78
2023/06/01 06:12:46;;;;;;;15.30;4.70;;;13.80;99.90;;;;;;5040306;28;20232;-80
2023/06/01 06:15:12;;;;;;;9.15;4.70;;;13.70;99.90;;;;;;5038411;28;20196;-81
2023/06/01 06:17:39;;;;;;;6.30;4.63;;;13.80;99.90;;;;;;5036546;28;20236;-80
2023/06/01 06:20:10;;;;;;;11.60;4.78;;;13.80;99.90;;;;;;5036561;28;20224;-81
2023/06/01 06:22:36;;;;;;;8.07;4.97;;;13.90;99.90;;;;;;5027634;28;20373;-78
2023/06/01 06:25:04;;;;;;;6.20;4.85;;;13.90;99.90;;;;;;5032703;28;20216;-76
2023/06/01 06:27:31;;;;;;;8.98;4.97;;;13.80;99.90;;;;;;5036334;28;20638;-78
2023/06/01 06:29:58;;;;;;;10.70;5.15;;;13.80;99.90;;;;;;5043238;28;20228;-75
2023/06/01 06:32:26;;;;;;;12.25;5.05;;;13.80;99.90;;;;;;5033745;28;20299;-78
2023/06/01 06:34:53;;;;;;;5.60;3.47;;;13.80;99.90;;;;;;5036233;28;20199;-75
2023/06/01 06:37:21;;;;;;;15.18;6.38;;;13.80;99.90;;;;;;5035714;28;20649;-79
2023/06/01 06:39:48;;;;;;;10.27;4.75;;;13.80;99.90;;;;;;5035171;28;20253;-79
2023/06/01 06:42:15;;;;;;;9.30;5.22;;;13.80;99.90;;;;;;5032493;28;20251;-80
2023/06/01 06:44:42;;;;;;;9.30;4.95;;;13.90;99.90;;;;;;5041385;28;20238;-82
2023/06/01 06:47:14;;;;;;;11.00;5.55;;;14.00;99.90;;;;;;5039006;28;20254;-84
2023/06/01 06:49:42;;;;;;;17.90;6.40;;;14.00;99.90;;;;;;5037092;28;20204;-79
2023/06/01 06:52:12;;;;;;;8.98;5.25;;;14.10;99.90;;;;;;5035865;28;20228;-80
2023/06/01 06:54:41;;;;;;;11.82;5.15;;;14.20;99.90;;;;;;5032048;28;20231;-80
2023/06/01 06:57:09;;;;;;;9.27;4.15;;;14.30;99.90;;;;;;5045068;28;20211;-80
2023/06/01 06:59:36;;;;;;;15.07;4.90;;;14.30;99.90;;;;;;5031473;28;20224;-79
2023/06/01 07:02:06;;;;;;;11.70;5.15;;;14.20;99.90;;;;;;5043075;28;20683;-80
2023/06/01 07:04:33;;;;;;;10.77;5.15;;;14.00;99.90;;;;;;5035558;28;20216;-79
2023/06/01 07:07:00;;;;;;;7.93;5.03;;;14.00;99.90;;;;;;5036825;28;20216;-80
2023/06/01 07:09:28;;;;;;;12.90;5.13;;;14.10;99.90;;;;;;5044312;28;20196;-80
2023/06/01 07:11:56;;;;;;;11.98;5.80;;;14.00;99.90;;;;;;5043417;28;20220;-80
2023/06/01 07:14:23;;;;;;;14.32;6.05;;;14.00;99.90;;;;;;5044518;28;20259;-80
2023/06/01 07:16:50;;;;;;;9.45;5.95;;;14.10;99.90;;;;;;5033838;28;20255;-80
2023/06/01 07:19:17;;;;;;;6.78;4.00;;;14.10;99.90;;;;;;5048044;28;20195;-79
2023/06/01 07:21:45;;;;;;;15.90;5.57;;;14.20;99.90;;;;;;5032499;28;20300;-82
2023/06/01 07:24:12;;;;;;;8.55;4.93;;;14.40;99.90;;;;;;5033938;28;20257;-80
2023/06/01 07:26:38;;;;;;;9.95;5.55;;;14.30;99.90;;;;;;5037904;28;20196;-79
2023/06/01 07:29:07;;;;;;;7.53;4.65;;;14.30;99.90;;;;;;5038551;28;20264;-81
2023/06/01 07:31:36;;;;;;;8.00;4.35;;;14.40;99.90;;;;;;5047358;28;20203;-78
2023/06/01 07:34:03;;;;;;;11.10;4.55;;;14.40;99.90;;;;;;5041543;28;20231;-80
2023/06/01 07:36:36;;;;;;;14.77;4.10;;;14.40;99.90;;;;;;5038640;28;20239;-80
2023/06/01 07:39:06;;;;;;;10.02;4.32;;;14.40;99.90;;;;;;5035590;28;20579;-80
2023/06/01 07:41:33;;;;;;;9.90;5.13;;;14.40;99.90;;;;;;5039249;28;20220;-79
2023/06/01 07:44:01;;;;;;;9.30;4.97;;;14.30;99.90;;;;;;5034992;28;20209;-80
2023/06/01 07:46:29;;;;;;;12.43;5.53;;;14.40;99.90;;;;;;5040943;28;20710;-79
2023/06/01 07:49:00;;;;;;;6.55;4.38;;;14.50;99.90;;;;;;5045593;28;20228;-79
2023/06/01 07:51:28;;;;;;;10.82;6.00;;;14.60;99.90;;;;;;5051286;28;20227;-80
2023/06/01 07:53:59;;;;;;;7.68;5.20;;;14.50;99.90;;;;;;5037587;28;20216;-79
2023/06/01 07:56:28;;;;;;;6.25;4.60;;;14.60;99.90;;;;;;5032236;28;20601;-78
2023/06/01 07:58:57;;;;;;;7.90;4.93;;;14.60;99.90;;;;;;5033176;28;20238;-79
2023/06/01 08:01:25;;;;;;;9.05;5.05;;;14.60;99.90;;;;;;5033902;28;20204;-79
2023/06/01 08:03:55;;;;;;;7.13;3.97;;;14.70;99.90;;;;;;5039393;28;20297;-78
2023/06/01 08:06:23;;;;;;;7.35;3.33;;;14.70;99.90;;;;;;5037836;28;20270;-77
2023/06/01 08:08:53;;;;;;;7.97;3.90;;;14.90;99.90;;;;;;5037757;28;20207;-79
2023/06/01 08:11:23;;;;;;;12.07;3.67;;;14.80;99.90;;;;;;5045422;28;20534;-77
2023/06/01 08:13:50;;;;;;;10.43;5.60;;;14.90;99.90;;;;;;5039632;28;20220;-77
2023/06/01 08:16:17;;;;;;;18.05;4.72;;;14.80;99.90;;;;;;5038923;28;20203;-78
2023/06/01 08:18:44;;;;;;;15.27;4.70;;;14.80;99.90;;;;;;5033936;28;20277;-78
2023/06/01 08:21:12;;;;;;;13.98;4.90;;;14.90;99.90;;;;;;5033564;28;20211;-77
2023/06/01 08:23:41;;;;;;;10.55;4.90;;;14.80;99.90;;;;;;5033918;28;20318;-77
2023/06/01 08:26:08;;;;;;;12.30;5.72;;;14.80;99.90;;;;;;5041157;28;20200;-77
2023/06/01 08:28:34;;;;;;;17.80;4.38;;;14.90;99.90;;;;;;5036244;28;20235;-78
2023/06/01 08:31:03;;;;;;;8.85;4.50;;;14.90;99.90;;;;;;5033813;28;20547;-77
2023/06/01 08:33:31;;;;;;;10.82;6.40;;;15.00;99.90;;;;;;5037957;28;20307;-78
2023/06/01 08:35:58;;;;;;;13.35;4.97;;;15.00;99.90;;;;;;5029417;28;20232;-78
2023/06/01 08:38:32;;;;;;;11.50;5.20;;;15.00;99.90;;;;;;5037062;28;20281;-78
2023/06/01 08:41:03;;;;;;;9.18;5.80;;;15.10;99.90;;;;;;5021630;28;20226;-78
2023/06/01 08:43:33;;;;;;;9.63;4.45;;;15.10;99.90;;;;;;5051572;28;20637;-82
2023/06/01 08:46:01;;;;;;;15.05;5.60;;;15.20;99.90;;;;;;5054248;28;20217;-80
2023/06/01 08:48:29;;;;;;;35.33;5.90;;;15.40;99.90;;;;;;5047279;28;20206;-80
2023/06/01 08:50:57;;;;;;;11.27;5.55;;;15.40;99.90;;;;;;5052663;28;20201;-80
2023/06/01 08:53:29;;;;;;;7.00;4.32;;;15.60;99.90;;;;;;5034278;28;20316;-78
2023/06/01 08:55:57;;;;;;;35.42;9.95;;;15.60;99.90;;;;;;5044770;28;20208;-75
2023/06/01 08:58:26;;;;;;;7.90;4.38;;;15.60;99.90;;;;;;5039156;28;20209;-78
2023/06/01 09:00:54;;;;;;;14.85;4.80;;;15.60;99.90;;;;;;5030579;28;20202;-77
2023/06/01 09:03:21;;;;;;;13.00;5.05;;;15.50;99.90;;;;;;5044456;28;20230;-78
2023/06/01 09:05:48;;;;;;;9.90;5.47;;;15.50;99.90;;;;;;5052894;28;20231;-78
2023/06/01 09:08:16;;;;;;;10.65;4.70;;;15.60;99.90;;;;;;5038227;28;20681;-77
2023/06/01 09:10:44;;;;;;;12.38;5.32;;;15.70;99.90;;;;;;5044204;28;20288;-78
2023/06/01 09:13:11;;;;;;;10.63;5.50;;;15.80;99.90;;;;;;5041750;28;20293;-81
2023/06/01 09:15:52;;;;;;;26.02;7.28;;;15.70;99.90;;;;;;5033742;28;20650;-79
2023/06/01 09:18:19;;;;;;;12.63;4.85;;;15.70;99.90;;;;;;5033348;28;20212;-80
2023/06/01 09:20:46;;;;;;;8.60;4.38;;;15.60;99.90;;;;;;5031516;28;20241;-81
2023/06/01 09:23:24;;;;;;;9.48;4.88;;;15.60;99.90;;;;;;5044208;28;20265;-80
2023/06/01 09:26:06;;;;;;;10.60;4.70;;;15.60;99.90;;;;;;5034960;28;20675;-80
2023/06/01 09:28:54;;;;;;;16.30;5.07;;;15.70;99.90;;;;;;5039667;28;20202;-79
2023/06/01 09:31:37;;;;;;;9.85;4.30;;;15.80;99.90;;;;;;5038110;28;20607;-79
2023/06/01 09:34:05;;;;;;;7.28;3.90;;;15.70;99.90;;;;;;5037388;28;20684;-78
2023/06/01 09:36:33;;;;;;;7.32;4.45;;;15.70;99.90;;;;;;5043087;28;20274;-80
2023/06/01 09:39:04;;;;;;;10.88;4.32;;;15.60;99.90;;;;;;5047890;28;20268;-78
2023/06/01 09:41:51;;;;;;;6.80;4.22;;;15.60;99.90;;;;;;5036920;28;20201;-79
2023/06/01 09:44:26;;;;;;;8.93;4.15;;;15.70;99.90;;;;;;5031176;28;20229;-78
2023/06/01 09:46:54;;;;;;;4.30;3.40;;;15.70;99.90;;;;;;5037987;28;20313;-79
2023/06/01 09:49:24;;;;;;;7.40;3.55;;;15.90;99.90;;;;;;5032166;28;20289;-79
2023/06/01 09:51:52;;;;;;;5.93;3.05;;;16.10;99.90;;;;;;5050572;28;20206;-80
2023/06/01 09:54:23;;;;;;;5.78;3.08;;;16.10;99.90;;;;;;5047628;28;20207;-80
2023/06/01 09:56:52;;;;;;;12.35;4.43;;;16.20;99.90;;;;;;5040082;28;20198;-80
2023/06/01 09:59:21;;;;;;;7.40;3.22;;;16.20;99.90;;;;;;5038943;28;20242;-81
2023/06/01 10:01:51;;;;;;;9.90;3.70;;;16.10;99.90;;;;;;5039140;28;20201;-79
2023/06/01 10:04:22;;;;;;;13.03;4.40;;;16.20;99.90;;;;;;5041691;28;20220;-81
2023/06/01 10:06:52;;;;;;;6.43;4.20;;;16.40;99.90;;;;;;5054493;28;20444;-80
2023/06/01 10:09:20;;;;;;;7.30;3.50;;;16.50;99.90;;;;;;5041130;28;20442;-79
2023/06/01 10:11:48;;;;;;;11.88;4.53;;;16.50;99.90;;;;;;5051680;28;20456;-82
2023/06/01 10:14:17;;;;;;;8.73;3.50;;;16.50;99.90;;;;;;5047978;28;20199;-79
2023/06/01 10:16:45;;;;;;;9.48;3.95;;;16.50;99.90;;;;;;5054116;28;20261;-80
2023/06/01 10:19:13;;;;;;;10.95;3.60;;;16.40;99.90;;;;;;5045309;28;20211;-81
2023/06/01 10:21:42;;;;;;;13.17;4.70;;;16.50;99.90;;;;;;5052081;28;20203;-80
2023/06/01 10:24:10;;;;;;;11.50;3.83;;;16.50;99.90;;;;;;5038892;28;20496;-80
2023/06/01 10:26:46;;;;;;;12.53;5.30;;;16.70;99.90;;;;;;5046437;28;20210;-80
2023/06/01 10:29:14;;;;;;;11.90;3.97;;;16.70;99.90;;;;;;5044818;28;20450;-79
2023/06/01 10:31:44;;;;;;;11.50;4.07;;;16.90;99.90;;;;;;5046369;28;20522;-80
2023/06/01 10:34:13;;;;;;;7.93;4.87;;;17.00;99.90;;;;;;5052525;28;20444;-80
2023/06/01 10:37:15;;;;;;;16.55;5.30;;;17.20;99.90;;;;;;5039117;28;20430;-81
2023/06/01 10:39:42;;;;;;;11.37;4.50;;;17.40;99.90;;;;;;5029562;28;20227;-79
2023/06/01 10:42:40;;;;;;;9.57;5.10;;;17.50;99.90;;;;;;5041109;28;20549;-79
2023/06/01 10:45:26;;;;;;;10.33;4.23;;;17.60;99.90;;;;;;5012776;28;20478;-80
2023/06/01 10:48:01;;;;;;;8.23;4.20;;;17.80;99.90;;;;;;5050520;28;20458;-80
2023/06/01 10:50:28;;;;;;;12.47;4.27;;;17.90;99.90;;;;;;5042280;28;20470;-81
2023/06/01 10:52:56;;;;;;;6.60;3.80;;;18.00;99.90;;;;;;5053053;28;20471;-80
2023/06/01 10:55:34;;;;;;;13.03;5.13;;;18.00;99.90;;;;;;5044783;28;20529;-81
2023/06/01 10:58:23;;;;;;;9.17;4.47;;;18.00;99.90;;;;;;5037800;28;20450;-79
2023/06/01 11:00:52;;;;;;;9.93;4.17;;;18.00;99.90;;;;;;5029407;28;20458;-80
2023/06/01 11:03:44;;;;;;;10.90;3.90;;;18.00;99.90;;;;;;5046369;28;20581;-81
2023/06/01 11:06:26;;;;;;;8.27;4.10;;;18.10;99.90;;;;;;5045025;28;20806;-79
2023/06/01 11:08:57;;;;;;;13.27;4.37;;;18.10;99.90;;;;;;5032624;28;20439;-81
2023/06/01 11:11:46;;;;;;;14.83;5.37;;;18.10;99.90;;;;;;5056920;28;20557;-81
2023/06/01 11:14:14;;;;;;;9.23;3.57;;;18.10;99.90;;;;;;5043984;28;20438;-80
2023/06/01 11:16:41;;;;;;;9.27;4.17;;;18.10;99.90;;;;;;5047408;28;20443;-81
2023/06/01 11:19:10;;;;;;;8.53;4.57;;;18.10;99.90;;;;;;5037348;28;20447;-80
2023/06/01 11:21:43;;;;;;;9.40;5.03;;;18.00;99.90;;;;;;5040387;28;20493;-80
2023/06/01 11:24:12;;;;;;;10.50;4.30;;;17.90;99.90;;;;;;5036583;28;20505;-80
2023/06/01 11:26:42;;;;;;;11.50;4.60;;;17.80;99.90;;;;;;5041847;28;20478;-79
2023/06/01 11:29:17;;;;;;;9.10;3.90;;;17.80;99.90;;;;;;5051098;28;20443;-80
2023/06/01 11:31:46;;;;;;;5.40;4.10;;;17.80;99.90;;;;;;5038045;28;20537;-80
2023/06/01 11:34:18;;;;;;;9.70;4.03;;;17.70;99.90;;;;;;5061307;28;20501;-80
2023/06/01 11:36:47;;;;;;;7.57;4.50;;;17.60;99.90;;;;;;5051508;28;20471;-78
2023/06/01 11:39:20;;;;;;;19.53;4.47;;;17.60;99.90;;;;;;5060588;28;20455;-79
2023/06/01 11:41:52;;;;;;;11.00;5.10;;;17.50;99.90;;;;;;5029746;28;20491;-80
2023/06/01 11:44:19;;;;;;;4.90;4.37;;;17.40;99.90;;;;;;5035533;28;20601;-80
2023/06/01 11:47:05;;;;;;;9.87;4.70;;;17.30;99.90;;;;;;5051346;28;20445;-80
2023/06/01 11:49:42;;;;;;;29.43;5.53;;;17.10;99.90;;;;;;5036340;28;20478;-81
2023/06/01 11:52:10;;;;;;;10.97;5.37;;;17.40;99.90;;;;;;5035409;28;20472;-80
2023/06/01 11:54:38;;;;;;;13.70;5.33;;;17.60;99.90;;;;;;5037607;28;20539;-80
2023/06/01 11:57:07;;;;;;;9.43;6.73;;;17.70;99.90;;;;;;5037584;28;20439;-80
2023/06/01 11:59:38;;;;;;;8.77;4.40;;;17.60;99.90;;;;;;5037333;28;20455;-80
2023/06/01 12:02:17;;;;;;;15.03;4.40;;;17.60;99.90;;;;;;5043770;28;20469;-81
2023/06/01 12:04:56;;;;;;;13.83;6.13;;;17.50;99.90;;;;;;5035953;28;20513;-81
2023/06/01 12:07:24;;;;;;;8.80;4.30;;;17.40;99.90;;;;;;5046067;28;20790;-80
2023/06/01 12:09:54;;;;;;;6.80;4.20;;;17.50;99.90;;;;;;5044466;28;20540;-80
2023/06/01 12:12:23;;;;;;;15.97;4.90;;;17.60;99.90;;;;;;5035334;28;20531;-80
2023/06/01 12:14:51;;;;;;;7.90;4.10;;;17.80;99.90;;;;;;5051348;28;20434;-81
2023/06/01 12:17:18;;;;;;;18.00;5.90;;;17.80;99.90;;;;;;5054529;28;20442;-81
2023/06/01 12:19:50;;;;;;;11.83;4.37;;;17.90;99.90;;;;;;5049030;28;20435;-81
2023/06/01 12:22:18;;;;;;;8.37;4.87;;;17.70;99.90;;;;;;5043369;28;20490;-81
2023/06/01 12:24:45;;;;;;;11.37;4.43;;;17.60;99.90;;;;;;5045613;28;20486;-80
2023/06/01 12:27:19;;;;;;;12.67;3.80;;;17.60;99.90;;;;;;5039525;28;20439;-79
2023/06/01 12:29:47;;;;;;;8.20;4.47;;;17.60;99.90;;;;;;5043441;28;20531;-80
2023/06/01 12:32:17;;;;;;;9.93;4.93;;;17.30;99.90;;;;;;5050691;28;20521;-80
2023/06/01 12:34:47;;;;;;;7.40;3.97;;;17.40;99.90;;;;;;5053049;28;20442;-79
2023/06/01 12:37:18;;;;;;;12.10;5.73;;;17.50;99.90;;;;;;5055813;28;20430;-80
2023/06/01 12:39:52;;;;;;;14.60;5.50;;;17.50;99.90;;;;;;5055360;28;20466;-80
2023/06/01 12:42:19;;;;;;;13.83;5.80;;;17.40;99.90;;;;;;5015795;28;20478;-80
2023/06/01 12:44:46;;;;;;;15.33;4.70;;;17.20;99.90;;;;;;5044159;28;20475;-80
2023/06/01 12:47:16;;;;;;;13.03;5.70;;;17.20;99.90;;;;;;5036541;28;20444;-79
2023/06/01 12:50:02;;;;;;;12.80;4.90;;;17.20;99.90;;;;;;5042038;28;20454;-79
2023/06/01 12:52:31;;;;;;;12.53;5.93;;;17.10;99.90;;;;;;5049740;28;20567;-79